Terminal Aerodrome Forecast
Issued by NWS

Home | Current Version | Previous Version | Text Only | Print | Product List | Glossary On
Versions: 1 2 3 4 5 6 7 8 9 10 11 12 13 14
728
FTUS44 KLZK 281141
TAFHRO
TAF
KHRO 281141Z 2812/2912 18003KT 4SM RA BR FEW035 BKN090 OVC110
     FM281300 23003KT P6SM BKN050 BKN100
     FM281500 01008KT P6SM BKN050
     FM290000 01005KT P6SM SCT250=

USA.gov is the U.S. government's official web portal to all federal, state and local government web resources and services.